createdAt,value
2019-03-30T00:00:49.764Z,992.376
2019-03-30T00:02:49.947Z,992.381
2019-03-30T00:04:49.667Z,992.368
2019-03-30T00:06:49.987Z,992.358
2019-03-30T00:08:50.179Z,992.334
2019-03-30T00:10:50.407Z,992.316
2019-03-30T00:12:49.686Z,992.304
2019-03-30T00:14:49.894Z,992.280
2019-03-30T00:16:50.459Z,992.260
2019-03-30T00:18:49.857Z,992.244
2019-03-30T00:20:50.117Z,992.219
2019-03-30T00:22:50.381Z,992.214
2019-03-30T00:24:50.528Z,992.215
2019-03-30T00:26:49.982Z,992.217
2019-03-30T00:28:50.133Z,992.198
2019-03-30T00:30:50.433Z,992.184
2019-03-30T00:32:49.720Z,992.173
2019-03-30T00:34:50.292Z,992.180
2019-03-30T00:36:49.778Z,992.183
2019-03-30T00:38:49.973Z,992.172
2019-03-30T00:40:50.219Z,992.168
2019-03-30T00:42:50.451Z,992.165
2019-03-30T00:44:49.779Z,992.170
2019-03-30T00:46:50.261Z,992.168
2019-03-30T00:48:50.506Z,992.141
2019-03-30T00:50:49.698Z,992.122
2019-03-30T00:52:49.949Z,992.103
2019-03-30T00:54:50.162Z,992.086
2019-03-30T00:56:50.499Z,992.094
2019-03-30T00:58:49.722Z,992.096
2019-03-30T01:00:49.925Z,992.108
2019-03-30T01:02:50.221Z,992.124
2019-03-30T01:04:49.826Z,992.103
2019-03-30T01:06:50.256Z,992.127
2019-03-30T01:08:50.392Z,992.119
2019-03-30T01:10:49.694Z,992.077
2019-03-30T01:12:49.945Z,992.082
2019-03-30T01:14:50.260Z,992.078
2019-03-30T01:16:49.673Z,992.089
2019-03-30T01:18:49.865Z,992.089
2019-03-30T01:20:50.055Z,992.084
2019-03-30T01:22:50.326Z,992.081
2019-03-30T01:24:50.509Z,992.090
2019-03-30T01:26:49.952Z,992.078
2019-03-30T01:28:50.129Z,992.061
2019-03-30T01:30:50.296Z,992.026
2019-03-30T01:32:50.576Z,991.993
2019-03-30T01:34:50.383Z,991.991
2019-03-30T01:36:49.705Z,991.991
2019-03-30T01:38:50.059Z,991.979
2019-03-30T01:40:50.316Z,991.981
2019-03-30T01:42:50.548Z,992.027
2019-03-30T01:44:49.789Z,992.040
2019-03-30T01:46:50.285Z,992.052
2019-03-30T01:48:50.511Z,992.068
2019-03-30T01:50:49.789Z,992.070
2019-03-30T01:52:50.118Z,992.070
2019-03-30T01:54:50.319Z,992.068
2019-03-30T01:56:49.736Z,992.066
2019-03-30T01:58:49.929Z,992.046
2019-03-30T02:00:50.120Z,992.036
2019-03-30T02:02:50.326Z,992.015
2019-03-30T02:04:50.154Z,992.017
2019-03-30T02:06:50.548Z,992.013
2019-03-30T02:08:49.750Z,992.009
2019-03-30T02:10:50.015Z,992.009
2019-03-30T02:12:50.344Z,991.965
2019-03-30T02:14:49.771Z,991.940
2019-03-30T02:16:50.237Z,991.942
2019-03-30T02:18:49.713Z,991.964
2019-03-30T02:20:50.056Z,992.003
2019-03-30T02:22:50.609Z,992.052
2019-03-30T02:24:49.931Z,992.058
2019-03-30T02:26:50.365Z,992.064
2019-03-30T02:28:49.650Z,992.067
2019-03-30T02:30:49.965Z,992.058
2019-03-30T02:32:50.233Z,992.025
2019-03-30T02:34:50.069Z,992.006
2019-03-30T02:36:50.600Z,992.006
2019-03-30T02:38:49.936Z,992.017
2019-03-30T02:40:50.413Z,992.015
2019-03-30T02:42:49.729Z,992.012
2019-03-30T02:44:50.114Z,992.031
2019-03-30T02:46:50.559Z,992.033
2019-03-30T02:48:49.805Z,992.008
2019-03-30T02:50:51.072Z,992.002
2019-03-30T02:52:50.395Z,992.004
2019-03-30T02:54:49.701Z,991.990
2019-03-30T02:56:50.381Z,991.984
2019-03-30T02:58:49.665Z,991.969
2019-03-30T03:00:49.930Z,991.954
2019-03-30T03:02:50.265Z,991.918
2019-03-30T03:04:49.896Z,991.903
2019-03-30T03:06:50.371Z,991.904
2019-03-30T03:08:49.920Z,991.890
2019-03-30T03:10:50.080Z,991.890
2019-03-30T03:12:50.365Z,991.884
2019-03-30T03:14:50.593Z,991.899
2019-03-30T03:16:50.001Z,991.885
2019-03-30T03:18:50.249Z,991.892
2019-03-30T03:21:08.809Z,991.890
2019-03-30T03:22:49.937Z,991.905
2019-03-30T03:24:50.240Z,991.900
2019-03-30T03:26:49.825Z,991.891
2019-03-30T03:28:50.153Z,991.874
2019-03-30T03:30:50.423Z,991.871
2019-03-30T03:32:49.862Z,991.856
2019-03-30T03:34:49.718Z,991.868
2019-03-30T03:36:50.206Z,991.874
2019-03-30T03:38:50.456Z,991.890
2019-03-30T03:40:49.772Z,991.889
2019-03-30T03:42:49.982Z,991.873
2019-03-30T03:44:50.313Z,991.867
2019-03-30T03:46:50.597Z,991.841
2019-03-30T03:48:49.815Z,991.827
2019-03-30T03:50:50.177Z,991.806
2019-03-30T03:52:50.326Z,991.775
2019-03-30T03:54:50.562Z,991.734
2019-03-30T03:56:50.065Z,991.725
2019-03-30T03:58:50.315Z,991.713
2019-03-30T04:00:50.551Z,991.713
2019-03-30T04:02:49.943Z,991.700
2019-03-30T04:04:49.621Z,991.710
2019-03-30T04:06:50.116Z,991.699
2019-03-30T04:08:50.379Z,991.699
2019-03-30T04:10:50.547Z,991.717
2019-03-30T04:12:49.778Z,991.720
2019-03-30T04:14:50.036Z,991.701
2019-03-30T04:16:50.503Z,991.674
2019-03-30T04:18:49.763Z,991.677
2019-03-30T04:20:50.027Z,991.690
2019-03-30T04:22:50.374Z,991.687
2019-03-30T04:24:50.571Z,991.685
2019-03-30T04:26:50.141Z,991.698
2019-03-30T04:28:50.514Z,991.710
2019-03-30T04:30:49.813Z,991.705
2019-03-30T04:32:50.147Z,991.707
2019-03-30T04:34:50.131Z,991.729
2019-03-30T04:36:49.807Z,991.733
2019-03-30T04:38:50.186Z,991.727
2019-03-30T04:40:50.574Z,991.724
2019-03-30T04:42:50.007Z,991.714
2019-03-30T04:44:50.327Z,991.684
2019-03-30T04:46:49.842Z,991.671
2019-03-30T04:48:50.189Z,991.684
2019-03-30T04:50:50.578Z,991.676
2019-03-30T04:52:49.942Z,991.682
2019-03-30T04:54:50.140Z,991.697
2019-03-30T04:56:50.461Z,991.712
2019-03-30T04:58:49.732Z,991.695
2019-03-30T05:00:49.953Z,991.699
2019-03-30T05:02:50.349Z,991.717
2019-03-30T05:04:50.121Z,991.720
2019-03-30T05:06:50.503Z,991.731
2019-03-30T05:08:49.779Z,991.741
2019-03-30T05:10:50.005Z,991.767
2019-03-30T05:12:50.337Z,991.773
2019-03-30T05:14:50.534Z,991.757
2019-03-30T05:16:49.979Z,991.741
2019-03-30T05:18:50.198Z,991.736
2019-03-30T05:20:50.426Z,991.742
2019-03-30T05:22:51.671Z,991.774
2019-03-30T05:24:49.873Z,991.801
2019-03-30T05:26:49.976Z,991.808
2019-03-30T05:28:50.266Z,991.829
2019-03-30T05:30:50.542Z,991.838
2019-03-30T05:32:49.703Z,991.837
2019-03-30T05:34:49.667Z,991.793
2019-03-30T05:36:50.204Z,991.776
2019-03-30T05:38:50.409Z,991.769
2019-03-30T05:40:49.799Z,991.759
2019-03-30T05:42:50.045Z,991.756
2019-03-30T05:44:50.242Z,991.763
2019-03-30T05:46:49.720Z,991.763
2019-03-30T05:48:49.971Z,991.816
2019-03-30T05:50:50.198Z,991.835
2019-03-30T05:52:50.439Z,991.844
2019-03-30T05:54:49.689Z,991.842
2019-03-30T05:56:50.105Z,991.819
2019-03-30T05:58:50.363Z,991.823
2019-03-30T06:00:49.696Z,991.828
2019-03-30T06:02:49.916Z,991.830
2019-03-30T06:04:50.607Z,991.859
2019-03-30T06:06:49.991Z,991.881
2019-03-30T06:08:50.240Z,991.858
2019-03-30T06:10:50.533Z,991.853
2019-03-30T06:12:49.824Z,991.849
2019-03-30T06:14:49.987Z,991.846
2019-03-30T06:16:50.412Z,991.857
2019-03-30T06:18:49.746Z,991.878
2019-03-30T06:20:50.090Z,991.877
2019-03-30T06:22:50.394Z,991.884
2019-03-30T06:24:49.682Z,991.867
2019-03-30T06:26:50.060Z,991.848
2019-03-30T06:28:50.317Z,991.833
2019-03-30T06:30:50.464Z,991.795
2019-03-30T06:32:49.664Z,991.757
2019-03-30T06:34:49.711Z,991.748
2019-03-30T06:36:49.750Z,991.735
2019-03-30T06:38:49.912Z,991.735
2019-03-30T06:40:50.093Z,991.712
2019-03-30T06:42:50.316Z,991.695
2019-03-30T06:44:49.659Z,991.654
2019-03-30T06:46:50.166Z,991.632
2019-03-30T06:48:50.380Z,991.628
2019-03-30T06:50:50.581Z,991.611
2019-03-30T06:52:59.093Z,991.613
2019-03-30T06:54:50.492Z,991.619
2019-03-30T06:56:50.010Z,991.607
2019-03-30T06:58:50.297Z,991.608
2019-03-30T07:00:50.466Z,991.584
2019-03-30T07:02:49.695Z,991.585
2019-03-30T07:04:50.549Z,991.578
2019-03-30T07:06:49.988Z,991.540
2019-03-30T07:08:50.216Z,991.543
2019-03-30T07:10:50.493Z,991.511
2019-03-30T07:12:49.704Z,991.491
2019-03-30T07:14:50.122Z,991.482
2019-03-30T07:16:50.490Z,991.475
2019-03-30T07:18:49.648Z,991.466
2019-03-30T07:20:50.035Z,991.490
2019-03-30T07:22:51.558Z,991.496
2019-03-30T07:24:49.737Z,991.482
2019-03-30T07:26:50.096Z,991.468
2019-03-30T07:28:50.299Z,991.449
2019-03-30T07:30:50.463Z,991.438
2019-03-30T07:32:49.715Z,991.417
2019-03-30T07:34:49.691Z,991.398
2019-03-30T07:36:50.172Z,991.398
2019-03-30T07:38:50.597Z,991.345
2019-03-30T07:40:49.876Z,991.309
2019-03-30T07:42:50.267Z,991.287
2019-03-30T07:44:49.645Z,991.276
2019-03-30T07:46:50.226Z,991.281
2019-03-30T07:48:50.458Z,991.269
2019-03-30T07:50:49.644Z,991.269
2019-03-30T07:52:50.026Z,991.255
2019-03-30T07:54:50.423Z,991.211
2019-03-30T07:57:16.728Z,991.208
2019-03-30T07:58:50.351Z,991.141
2019-03-30T08:00:49.934Z,991.123
2019-03-30T08:02:50.156Z,991.070
2019-03-30T08:04:49.882Z,991.030
2019-03-30T08:06:50.201Z,991.021
2019-03-30T08:08:50.431Z,991.011
2019-03-30T08:10:50.560Z,991.005
2019-03-30T08:12:49.903Z,990.979
2019-03-30T08:14:50.138Z,990.975
2019-03-30T08:16:50.495Z,990.995
2019-03-30T08:18:49.706Z,990.998
2019-03-30T08:20:49.875Z,991.000
2019-03-30T08:22:50.021Z,990.982
2019-03-30T08:24:50.319Z,990.985
2019-03-30T08:26:49.670Z,991.010
2019-03-30T08:28:49.868Z,990.963
2019-03-30T08:30:50.091Z,990.944
2019-03-30T08:32:50.295Z,990.942
2019-03-30T08:34:50.056Z,990.920
2019-03-30T08:36:50.376Z,990.910
2019-03-30T08:38:50.593Z,990.910
2019-03-30T08:40:49.779Z,990.901
2019-03-30T08:42:50.014Z,990.904
2019-03-30T08:44:50.306Z,990.875
2019-03-30T08:46:49.680Z,990.877
2019-03-30T08:48:50.017Z,990.881
2019-03-30T08:50:50.355Z,990.889
2019-03-30T08:52:50.619Z,990.880
2019-03-30T08:54:49.917Z,990.855
2019-03-30T08:56:50.418Z,990.855
2019-03-30T08:58:49.743Z,990.824
2019-03-30T09:00:49.977Z,990.825
2019-03-30T09:02:50.329Z,990.855
2019-03-30T09:04:50.289Z,990.843
2019-03-30T09:06:49.634Z,990.832
2019-03-30T09:08:49.887Z,990.823
2019-03-30T09:10:50.183Z,990.806
2019-03-30T09:12:50.433Z,990.805
2019-03-30T09:14:49.653Z,990.828
2019-03-30T09:16:50.021Z,990.793
2019-03-30T09:18:50.199Z,990.754
2019-03-30T09:20:50.458Z,990.715
2019-03-30T09:22:49.707Z,990.675
2019-03-30T09:24:49.896Z,990.671
2019-03-30T09:26:50.267Z,990.677
2019-03-30T09:28:50.486Z,990.650
2019-03-30T09:30:49.662Z,990.642
2019-03-30T09:32:49.881Z,990.615
2019-03-30T09:34:50.543Z,990.580
2019-03-30T09:36:50.391Z,990.552
2019-03-30T09:38:50.175Z,990.525
2019-03-30T09:40:50.426Z,990.498
2019-03-30T09:42:49.767Z,990.470
2019-03-30T09:44:50.066Z,990.439
2019-03-30T09:46:50.542Z,990.427
2019-03-30T09:48:49.833Z,990.423
2019-03-30T09:50:50.051Z,990.403
2019-03-30T09:52:50.247Z,990.411
2019-03-30T09:54:50.497Z,990.422
2019-03-30T09:56:49.871Z,990.402
2019-03-30T09:58:50.079Z,990.390
2019-03-30T10:00:50.319Z,990.392
2019-03-30T10:02:50.525Z,990.386
2019-03-30T10:04:50.305Z,990.381
2019-03-30T10:06:50.572Z,990.369
2019-03-30T10:08:49.886Z,990.344
2019-03-30T10:10:49.998Z,990.297
2019-03-30T10:12:50.347Z,990.304
2019-03-30T10:14:49.785Z,990.284
2019-03-30T10:16:50.120Z,990.284
2019-03-30T10:18:50.303Z,990.228
2019-03-30T10:20:50.482Z,990.173
2019-03-30T10:22:49.725Z,990.159
2019-03-30T10:24:50.031Z,990.131
2019-03-30T10:26:50.685Z,990.117
2019-03-30T10:28:49.902Z,990.111
2019-03-30T10:30:50.194Z,990.082
2019-03-30T10:32:50.435Z,990.069
2019-03-30T10:34:50.158Z,990.028
2019-03-30T10:36:50.474Z,989.990
2019-03-30T10:38:49.738Z,989.964
2019-03-30T10:40:49.972Z,989.932
2019-03-30T10:42:50.230Z,989.923
2019-03-30T10:44:50.543Z,989.907
2019-03-30T10:46:49.965Z,989.913
2019-03-30T10:48:50.229Z,989.908
2019-03-30T10:50:50.412Z,989.877
2019-03-30T10:52:50.580Z,989.842
2019-03-30T10:54:53.495Z,989.845
2019-03-30T10:56:49.854Z,989.785
2019-03-30T10:58:50.100Z,989.726
2019-03-30T11:00:50.345Z,989.687
2019-03-30T11:02:50.479Z,989.686
2019-03-30T11:04:50.294Z,989.703
2019-03-30T11:06:49.647Z,989.650
2019-03-30T11:08:49.882Z,989.627
2019-03-30T11:10:50.087Z,989.597
2019-03-30T11:12:50.323Z,989.631
2019-03-30T11:14:50.511Z,989.585
2019-03-30T11:16:49.877Z,989.569
2019-03-30T11:18:50.100Z,989.542
2019-03-30T11:20:50.330Z,989.492
2019-03-30T11:22:50.544Z,989.475
2019-03-30T11:24:49.741Z,989.486
2019-03-30T11:26:50.146Z,989.446
2019-03-30T11:28:50.489Z,989.422
2019-03-30T11:30:49.701Z,989.406
2019-03-30T11:32:49.938Z,989.362
2019-03-30T11:34:50.631Z,989.338
2019-03-30T11:36:50.028Z,989.341
2019-03-30T11:38:50.231Z,989.352
2019-03-30T11:40:50.363Z,989.309
2019-03-30T11:42:50.565Z,989.263
2019-03-30T11:44:49.705Z,989.220
2019-03-30T11:46:50.305Z,989.205
2019-03-30T11:48:49.636Z,989.171
2019-03-30T11:50:50.138Z,989.152
2019-03-30T11:52:49.715Z,989.149
2019-03-30T11:54:50.152Z,989.119
2019-03-30T11:56:49.734Z,989.055
2019-03-30T11:58:50.270Z,989.029
2019-03-30T12:00:49.743Z,989.000
2019-03-30T12:02:50.235Z,988.953
2019-03-30T12:04:50.272Z,988.894
2019-03-30T12:06:52.229Z,988.845
2019-03-30T12:08:49.878Z,988.849
2019-03-30T12:10:50.443Z,988.872
2019-03-30T12:12:49.987Z,988.899
2019-03-30T12:14:50.467Z,988.856
2019-03-30T12:16:50.039Z,988.814
2019-03-30T12:18:50.443Z,988.729
2019-03-30T12:20:49.950Z,988.695
2019-03-30T12:22:50.443Z,988.647
2019-03-30T12:24:49.926Z,988.620
2019-03-30T12:26:50.419Z,988.567
2019-03-30T12:28:49.820Z,988.567
2019-03-30T12:30:50.227Z,988.553
2019-03-30T12:32:49.687Z,988.577
2019-03-30T12:34:50.605Z,988.561
2019-03-30T12:36:50.332Z,988.530
2019-03-30T12:38:49.870Z,988.531
2019-03-30T12:40:50.452Z,988.477
2019-03-30T12:42:49.920Z,988.415
2019-03-30T12:44:50.329Z,988.359
2019-03-30T12:46:49.905Z,988.298
2019-03-30T12:48:50.493Z,988.280
2019-03-30T12:50:49.980Z,988.268
2019-03-30T12:52:50.362Z,988.233
2019-03-30T12:54:49.879Z,988.206
2019-03-30T12:56:50.223Z,988.179
2019-03-30T12:58:50.489Z,988.176
2019-03-30T13:00:49.663Z,988.170
2019-03-30T13:02:49.905Z,988.120
2019-03-30T13:04:49.720Z,988.104
2019-03-30T13:06:50.110Z,988.067
2019-03-30T13:08:50.379Z,988.049
2019-03-30T13:10:50.616Z,988.022
2019-03-30T13:12:49.991Z,988.005
2019-03-30T13:14:50.398Z,987.992
2019-03-30T13:16:49.906Z,987.943
2019-03-30T13:18:50.478Z,987.907
2019-03-30T13:20:49.914Z,987.889
2019-03-30T13:22:50.309Z,987.877
2019-03-30T13:24:50.576Z,987.884
2019-03-30T13:26:50.222Z,987.840
2019-03-30T13:28:50.553Z,987.810
2019-03-30T13:30:49.947Z,987.762
2019-03-30T13:32:53.768Z,987.764
2019-03-30T13:34:50.609Z,987.776
2019-03-30T13:36:50.375Z,987.785
2019-03-30T13:38:49.779Z,987.741
2019-03-30T13:40:50.256Z,987.687
2019-03-30T13:42:50.618Z,987.653
2019-03-30T13:44:49.975Z,987.630
2019-03-30T13:46:50.544Z,987.612
2019-03-30T13:48:49.946Z,987.591
2019-03-30T13:50:50.302Z,987.580
2019-03-30T13:52:49.708Z,987.546
2019-03-30T13:54:50.171Z,987.555
2019-03-30T13:56:49.753Z,987.546
2019-03-30T13:58:50.191Z,987.519
2019-03-30T14:00:50.562Z,987.507
2019-03-30T14:02:49.974Z,987.523
2019-03-30T14:04:52.806Z,987.486
2019-03-30T14:06:50.319Z,987.486
2019-03-30T14:08:49.788Z,987.397
2019-03-30T14:10:50.199Z,987.351
2019-03-30T14:12:49.632Z,987.339
2019-03-30T14:14:50.021Z,987.340
2019-03-30T14:16:49.705Z,987.332
2019-03-30T14:18:50.106Z,987.324
2019-03-30T14:20:50.457Z,987.325
2019-03-30T14:22:49.935Z,987.316
2019-03-30T14:24:50.401Z,987.263
2019-03-30T14:26:49.933Z,987.199
2019-03-30T14:28:50.331Z,987.163
2019-03-30T14:30:49.714Z,987.120
2019-03-30T14:32:50.121Z,987.113
2019-03-30T14:34:50.042Z,987.085
2019-03-30T14:36:50.610Z,987.056
2019-03-30T14:38:50.015Z,987.037
2019-03-30T14:40:50.519Z,987.009
2019-03-30T14:42:49.997Z,986.985
2019-03-30T14:44:50.364Z,986.974
2019-03-30T14:46:49.885Z,986.923
2019-03-30T14:48:50.328Z,986.882
2019-03-30T14:50:49.739Z,986.843
2019-03-30T14:52:50.096Z,986.810
2019-03-30T14:54:53.521Z,986.775
2019-03-30T14:56:50.001Z,986.723
2019-03-30T14:58:50.464Z,986.708
2019-03-30T15:00:50.175Z,986.691
2019-03-30T15:02:50.525Z,986.665
2019-03-30T15:04:50.612Z,986.659
2019-03-30T15:06:50.212Z,986.668
2019-03-30T15:08:49.619Z,986.643
2019-03-30T15:10:49.978Z,986.641
2019-03-30T15:12:50.393Z,986.620
2019-03-30T15:14:49.869Z,986.595
2019-03-30T15:16:50.395Z,986.566
2019-03-30T15:18:49.947Z,986.560
2019-03-30T15:20:50.343Z,986.560
2019-03-30T15:22:49.752Z,986.570
2019-03-30T15:24:50.199Z,986.555
2019-03-30T15:27:00.774Z,986.546
2019-03-30T15:28:50.189Z,986.535
2019-03-30T15:30:50.556Z,986.520
2019-03-30T15:32:49.943Z,986.516
2019-03-30T15:34:49.699Z,986.492
2019-03-30T15:36:50.171Z,986.448
2019-03-30T15:38:50.574Z,986.396
2019-03-30T15:40:49.911Z,986.396
2019-03-30T15:42:50.367Z,986.363
2019-03-30T15:44:49.718Z,986.375
2019-03-30T15:46:50.301Z,986.361
2019-03-30T15:48:49.731Z,986.333
2019-03-30T15:50:50.138Z,986.317
2019-03-30T15:52:50.502Z,986.300
2019-03-30T15:54:49.870Z,986.308
2019-03-30T15:56:50.473Z,986.301
2019-03-30T15:58:49.885Z,986.295
2019-03-30T16:00:50.281Z,986.294
2019-03-30T16:02:50.506Z,986.289
2019-03-30T16:04:50.420Z,986.282
2019-03-30T16:06:49.844Z,986.289
2019-03-30T16:08:50.082Z,986.271
2019-03-30T16:10:52.724Z,986.279
2019-03-30T16:12:50.096Z,986.283
2019-03-30T16:14:50.462Z,986.266
2019-03-30T16:16:49.843Z,986.283
2019-03-30T16:18:50.126Z,986.309
2019-03-30T16:20:50.367Z,986.323
2019-03-30T16:22:50.541Z,986.310
2019-03-30T16:24:49.850Z,986.308
2019-03-30T16:26:50.261Z,986.284
2019-03-30T16:28:50.428Z,986.259
2019-03-30T16:30:49.661Z,986.261
2019-03-30T16:32:49.909Z,986.251
2019-03-30T16:34:49.656Z,986.218
2019-03-30T16:36:50.101Z,986.210
2019-03-30T16:38:50.321Z,986.213
2019-03-30T16:40:50.479Z,986.210
2019-03-30T16:42:49.687Z,986.207
2019-03-30T16:44:49.904Z,986.210
2019-03-30T16:46:50.204Z,986.196
2019-03-30T16:48:50.461Z,986.201
2019-03-30T16:50:49.716Z,986.191
2019-03-30T16:52:50.056Z,986.171
2019-03-30T16:54:50.271Z,986.164
2019-03-30T16:56:49.772Z,986.168
2019-03-30T16:58:49.946Z,986.172
2019-03-30T17:00:57.321Z,986.168
2019-03-30T17:02:49.724Z,986.155
2019-03-30T17:04:50.623Z,986.135
2019-03-30T17:06:50.008Z,986.132
2019-03-30T17:08:50.232Z,986.138
2019-03-30T17:10:50.449Z,986.155
2019-03-30T17:12:49.670Z,986.143
2019-03-30T17:14:49.945Z,986.137
2019-03-30T17:16:50.230Z,986.127
2019-03-30T17:18:50.391Z,986.123
2019-03-30T17:20:50.579Z,986.130
2019-03-30T17:22:49.903Z,986.135
2019-03-30T17:24:50.079Z,986.153
2019-03-30T17:26:50.435Z,986.147
2019-03-30T17:28:49.700Z,986.163
2019-03-30T17:30:49.979Z,986.207
2019-03-30T17:32:50.290Z,986.233
2019-03-30T17:34:50.024Z,986.243
2019-03-30T17:36:50.407Z,986.261
2019-03-30T17:38:50.657Z,986.273
2019-03-30T17:40:49.908Z,986.252
2019-03-30T17:42:50.104Z,986.252
2019-03-30T17:44:50.300Z,986.232
2019-03-30T17:46:50.620Z,986.242
2019-03-30T17:48:49.857Z,986.265
2019-03-30T17:50:50.118Z,986.291
2019-03-30T17:52:50.373Z,986.311
2019-03-30T17:54:50.551Z,986.315
2019-03-30T17:56:49.984Z,986.318
2019-03-30T17:58:50.310Z,986.318
2019-03-30T18:00:50.481Z,986.331
2019-03-30T18:02:49.799Z,986.336
2019-03-30T18:04:49.675Z,986.352
2019-03-30T18:06:50.143Z,986.377
2019-03-30T18:08:50.340Z,986.375
2019-03-30T18:10:50.514Z,986.398
2019-03-30T18:12:49.738Z,986.399
2019-03-30T18:14:50.068Z,986.407
2019-03-30T18:16:50.478Z,986.390
2019-03-30T18:18:49.828Z,986.388
2019-03-30T18:20:50.125Z,986.381
2019-03-30T18:22:50.268Z,986.363
2019-03-30T18:24:50.449Z,986.348
2019-03-30T18:26:49.873Z,986.335
2019-03-30T18:28:50.174Z,986.355
2019-03-30T18:30:50.335Z,986.361
2019-03-30T18:32:53.667Z,986.377
2019-03-30T18:34:49.770Z,986.366
2019-03-30T18:36:50.323Z,986.358
2019-03-30T18:38:50.545Z,986.390
2019-03-30T18:40:49.793Z,986.450
2019-03-30T18:42:50.078Z,986.470
2019-03-30T18:44:50.376Z,986.493
2019-03-30T18:46:49.808Z,986.510
2019-03-30T18:48:50.040Z,986.505
2019-03-30T18:50:50.313Z,986.522
2019-03-30T18:52:50.473Z,986.546
2019-03-30T18:54:49.632Z,986.574
2019-03-30T18:56:50.074Z,986.591
2019-03-30T18:58:50.341Z,986.602
2019-03-30T19:00:50.563Z,986.634
2019-03-30T19:02:49.820Z,986.634
2019-03-30T19:04:50.614Z,986.637
2019-03-30T19:06:50.035Z,986.646
2019-03-30T19:08:50.308Z,986.660
2019-03-30T19:10:50.528Z,986.651
2019-03-30T19:12:49.824Z,986.661
2019-03-30T19:14:50.163Z,986.657
2019-03-30T19:16:50.593Z,986.648
2019-03-30T19:18:49.889Z,986.637
2019-03-30T19:20:50.095Z,986.628
2019-03-30T19:22:50.299Z,986.617
2019-03-30T19:24:50.559Z,986.595
2019-03-30T19:26:49.917Z,986.617
2019-03-30T19:28:57.072Z,986.611
2019-03-30T19:30:50.268Z,986.624
2019-03-30T19:32:50.444Z,986.627
2019-03-30T19:34:50.131Z,986.612
2019-03-30T19:36:50.513Z,986.607
2019-03-30T19:38:49.807Z,986.598
2019-03-30T19:40:49.990Z,986.612
2019-03-30T19:42:50.172Z,986.630
2019-03-30T19:44:50.369Z,986.625
2019-03-30T19:46:49.927Z,986.606
2019-03-30T19:48:50.198Z,986.605
2019-03-30T19:50:50.371Z,986.614
2019-03-30T19:52:50.541Z,986.598
2019-03-30T19:54:49.818Z,986.596
2019-03-30T19:56:50.225Z,986.606
2019-03-30T19:58:50.439Z,986.606
2019-03-30T20:00:49.898Z,986.638
2019-03-30T20:02:50.266Z,986.623
2019-03-30T20:04:50.016Z,986.607
2019-03-30T20:06:50.373Z,986.601
2019-03-30T20:08:49.624Z,986.615
2019-03-30T20:10:49.891Z,986.608
2019-03-30T20:12:50.093Z,986.616
2019-03-30T20:14:50.311Z,986.649
2019-03-30T20:16:49.671Z,986.657
2019-03-30T20:18:49.871Z,986.677
2019-03-30T20:20:50.161Z,986.683
2019-03-30T20:22:50.374Z,986.662
2019-03-30T20:24:49.648Z,986.676
2019-03-30T20:26:50.035Z,986.691
2019-03-30T20:28:50.318Z,986.679
2019-03-30T20:30:50.517Z,986.682
2019-03-30T20:32:49.831Z,986.674
2019-03-30T20:34:50.453Z,986.691
2019-03-30T20:36:49.880Z,986.698
2019-03-30T20:38:50.122Z,986.682
2019-03-30T20:40:50.365Z,986.655
2019-03-30T20:42:50.502Z,986.652
2019-03-30T20:44:49.654Z,986.662
2019-03-30T20:46:49.989Z,986.662
2019-03-30T20:48:50.213Z,986.690
2019-03-30T20:50:50.430Z,986.702
2019-03-30T20:52:49.685Z,986.711
2019-03-30T20:54:49.983Z,986.705
2019-03-30T20:56:50.359Z,986.698
2019-03-30T20:58:50.520Z,986.705
2019-03-30T21:00:49.740Z,986.709
2019-03-30T21:02:50.018Z,986.697
2019-03-30T21:04:49.775Z,986.690
2019-03-30T21:06:50.161Z,986.719
2019-03-30T21:08:50.335Z,986.726
2019-03-30T21:10:50.488Z,986.720
2019-03-30T21:12:49.729Z,986.728
2019-03-30T21:14:49.860Z,986.745
2019-03-30T21:16:50.273Z,986.738
2019-03-30T21:18:50.558Z,986.727
2019-03-30T21:20:49.749Z,986.724
2019-03-30T21:22:50.081Z,986.730
2019-03-30T21:24:50.375Z,986.732
2019-03-30T21:26:49.852Z,986.746
2019-03-30T21:28:50.071Z,986.736
2019-03-30T21:30:50.323Z,986.709
2019-03-30T21:32:50.522Z,986.688
2019-03-30T21:34:50.234Z,986.674
2019-03-30T21:36:50.650Z,986.674
2019-03-30T21:38:49.966Z,986.665
2019-03-30T21:40:50.120Z,986.655
2019-03-30T21:42:50.379Z,986.672
2019-03-30T21:44:50.615Z,986.676
2019-03-30T21:46:50.065Z,986.676
2019-03-30T21:48:50.277Z,986.687
2019-03-30T21:50:50.451Z,986.692
2019-03-30T21:52:49.620Z,986.694
2019-03-30T21:54:49.777Z,986.693
2019-03-30T21:56:50.246Z,986.688
2019-03-30T21:58:50.395Z,986.675
2019-03-30T22:00:49.707Z,986.675
2019-03-30T22:02:49.960Z,986.694
2019-03-30T22:04:49.655Z,986.682
2019-03-30T22:06:50.006Z,986.686
2019-03-30T22:08:50.276Z,986.681
2019-03-30T22:10:50.543Z,986.679
2019-03-30T22:12:49.853Z,986.682
2019-03-30T22:14:50.122Z,986.698
2019-03-30T22:16:50.465Z,986.702
2019-03-30T22:18:49.689Z,986.696
2019-03-30T22:20:49.831Z,986.685
2019-03-30T22:22:50.107Z,986.679
2019-03-30T22:24:50.424Z,986.685
2019-03-30T22:26:49.834Z,986.669
2019-03-30T22:28:50.095Z,986.659
2019-03-30T22:30:50.317Z,986.655
2019-03-30T22:32:50.527Z,986.666
2019-03-30T22:34:50.422Z,986.663
2019-03-30T22:36:49.801Z,986.663
2019-03-30T22:38:50.027Z,986.686
2019-03-30T22:40:50.295Z,986.713
2019-03-30T22:42:50.488Z,986.729
2019-03-30T22:44:49.718Z,986.734
2019-03-30T22:46:50.233Z,986.732
2019-03-30T22:48:50.490Z,986.737
2019-03-30T22:50:49.699Z,986.739
2019-03-30T22:52:49.964Z,986.744
2019-03-30T22:54:50.208Z,986.746
2019-03-30T22:56:49.659Z,986.754
2019-03-30T22:58:49.881Z,986.750
2019-03-30T23:00:50.180Z,986.732
2019-03-30T23:02:50.502Z,986.736
2019-03-30T23:04:50.348Z,986.725
2019-03-30T23:06:49.747Z,986.722
2019-03-30T23:08:49.968Z,986.732
2019-03-30T23:10:50.223Z,986.736
2019-03-30T23:12:50.439Z,986.736
2019-03-30T23:14:50.586Z,986.732
2019-03-30T23:16:49.973Z,986.717
2019-03-30T23:18:50.308Z,986.717
2019-03-30T23:20:50.506Z,986.731
2019-03-30T23:22:49.717Z,986.734
2019-03-30T23:24:49.989Z,986.729
2019-03-30T23:26:50.380Z,986.719
2019-03-30T23:28:50.587Z,986.713
2019-03-30T23:30:55.109Z,986.711
2019-03-30T23:32:50.307Z,986.701
2019-03-30T23:34:50.097Z,986.694
2019-03-30T23:36:50.523Z,986.693
2019-03-30T23:38:49.742Z,986.712
2019-03-30T23:40:49.933Z,986.700
2019-03-30T23:42:50.211Z,986.702
2019-03-30T23:44:50.467Z,986.707
2019-03-30T23:46:49.936Z,986.709
2019-03-30T23:48:50.134Z,986.704
2019-03-30T23:50:50.386Z,986.710
2019-03-30T23:52:50.586Z,986.703
2019-03-30T23:54:49.761Z,986.684
2019-03-30T23:56:50.170Z,986.680
2019-03-30T23:58:50.325Z,986.680
